createdAt,value
2018-11-26T00:01:19.213Z,10.70
2018-11-26T00:03:46.184Z,10.23
2018-11-26T00:06:13.393Z,13.10
2018-11-26T00:08:41.176Z,9.33
2018-11-26T00:11:42.835Z,11.10
2018-11-26T00:14:10.347Z,12.58
2018-11-26T00:16:37.297Z,9.18
2018-11-26T00:19:05.156Z,10.65
2018-11-26T00:21:32.117Z,10.15
2018-11-26T00:23:59.080Z,10.48
2018-11-26T00:26:26.010Z,9.38
2018-11-26T00:28:53.146Z,9.47
2018-11-26T00:31:20.073Z,10.03
2018-11-26T00:33:47.021Z,10.13
2018-11-26T00:36:13.998Z,10.88
2018-11-26T00:38:41.063Z,8.03
2018-11-26T00:41:08.085Z,7.33
2018-11-26T00:43:35.177Z,9.53
2018-11-26T00:46:02.095Z,9.63
2018-11-26T00:48:29.005Z,8.10
2018-11-26T00:50:55.922Z,8.50
2018-11-26T00:53:22.834Z,8.10
2018-11-26T00:55:49.745Z,8.83
2018-11-26T00:58:16.654Z,8.88
2018-11-26T01:00:43.568Z,7.50
2018-11-26T01:03:10.490Z,11.03
2018-11-26T01:05:39.273Z,7.53
2018-11-26T01:08:06.253Z,7.73
2018-11-26T01:10:33.170Z,8.00
2018-11-26T01:13:00.097Z,5.90
2018-11-26T01:15:27.018Z,7.13
2018-11-26T01:17:53.947Z,7.30
2018-11-26T01:20:20.937Z,7.50
2018-11-26T01:22:47.849Z,5.95
2018-11-26T01:25:14.905Z,5.60
2018-11-26T01:27:41.830Z,7.67
2018-11-26T01:30:09.001Z,8.93
2018-11-26T01:32:35.989Z,9.57
2018-11-26T01:35:02.978Z,6.30
2018-11-26T01:37:29.927Z,5.83
2018-11-26T01:39:56.821Z,8.80
2018-11-26T01:42:23.744Z,10.80
2018-11-26T01:44:50.709Z,9.00
2018-11-26T01:47:17.625Z,7.50
2018-11-26T01:49:44.536Z,9.87
2018-11-26T01:52:11.449Z,8.33
2018-11-26T01:54:38.350Z,8.30
2018-11-26T01:57:05.337Z,6.20
2018-11-26T01:59:32.239Z,8.50
2018-11-26T02:01:59.157Z,8.68
2018-11-26T02:04:26.063Z,8.00
2018-11-26T02:06:52.981Z,8.77
2018-11-26T02:09:19.909Z,8.40
2018-11-26T02:11:46.824Z,7.60
2018-11-26T02:14:13.806Z,10.23
2018-11-26T02:16:40.717Z,10.10
2018-11-26T02:19:07.631Z,9.20
2018-11-26T02:21:34.544Z,11.57
2018-11-26T02:24:01.489Z,7.43
2018-11-26T02:26:28.408Z,9.73
2018-11-26T02:28:55.306Z,10.43
2018-11-26T02:31:22.201Z,7.00
2018-11-26T02:33:49.094Z,11.17
2018-11-26T02:36:16.011Z,8.50
2018-11-26T02:38:42.896Z,11.03
2018-11-26T02:41:09.810Z,11.87
2018-11-26T02:43:36.720Z,6.80
2018-11-26T02:46:03.666Z,9.73
2018-11-26T02:48:30.565Z,7.15
2018-11-26T02:50:57.462Z,8.53
2018-11-26T02:53:24.353Z,8.67
2018-11-26T02:55:51.600Z,6.37
2018-11-26T02:58:18.525Z,7.97
2018-11-26T03:00:46.207Z,6.50
2018-11-26T03:03:14.001Z,7.80
2018-11-26T03:05:40.962Z,7.73
2018-11-26T03:08:07.922Z,7.13
2018-11-26T03:10:34.833Z,5.53
2018-11-26T03:13:01.751Z,8.60
2018-11-26T03:15:28.645Z,10.13
2018-11-26T03:17:55.574Z,8.53
2018-11-26T03:20:22.485Z,7.30
2018-11-26T03:22:49.406Z,6.33
2018-11-26T03:25:16.326Z,7.47
2018-11-26T03:27:43.246Z,9.53
2018-11-26T03:30:11.600Z,8.08
2018-11-26T03:32:38.558Z,4.87
2018-11-26T03:35:06.488Z,5.77
2018-11-26T03:37:33.413Z,8.70
2018-11-26T03:40:00.329Z,7.28
2018-11-26T03:42:27.276Z,5.20
2018-11-26T03:44:54.171Z,8.65
2018-11-26T03:47:21.088Z,6.85
2018-11-26T03:49:48.001Z,10.23
2018-11-26T03:52:14.929Z,7.55
2018-11-26T03:54:41.839Z,7.37
2018-11-26T03:57:08.747Z,11.20
2018-11-26T03:59:35.685Z,9.00
2018-11-26T04:02:02.614Z,10.05
2018-11-26T04:04:29.537Z,10.20
2018-11-26T04:06:56.457Z,9.20
2018-11-26T04:09:23.380Z,10.10
2018-11-26T04:11:50.293Z,7.20
2018-11-26T04:14:17.214Z,5.87
2018-11-26T04:16:44.133Z,7.80
2018-11-26T04:19:11.047Z,9.83
2018-11-26T04:21:37.969Z,5.42
2018-11-26T04:24:05.188Z,6.35
2018-11-26T04:26:32.107Z,9.85
2018-11-26T04:28:59.034Z,6.62
2018-11-26T04:31:26.023Z,5.75
2018-11-26T04:33:52.986Z,5.70
2018-11-26T04:36:20.013Z,6.80
2018-11-26T04:38:46.942Z,7.47
2018-11-26T04:41:13.886Z,4.43
2018-11-26T04:43:40.801Z,7.97
2018-11-26T04:46:07.768Z,8.03
2018-11-26T04:48:34.680Z,5.83
2018-11-26T04:51:01.584Z,7.17
2018-11-26T04:53:28.489Z,7.20
2018-11-26T04:55:55.386Z,4.92
2018-11-26T04:58:22.311Z,6.30
2018-11-26T05:00:49.213Z,5.87
2018-11-26T05:03:16.150Z,4.65
2018-11-26T05:05:43.053Z,6.65
2018-11-26T05:08:09.998Z,7.22
2018-11-26T05:10:36.904Z,3.67
2018-11-26T05:13:03.864Z,8.18
2018-11-26T05:15:30.769Z,4.87
2018-11-26T05:18:02.070Z,4.45
2018-11-26T05:20:29.013Z,6.72
2018-11-26T05:22:55.917Z,3.20
2018-11-26T05:25:22.813Z,5.17
2018-11-26T05:27:49.700Z,4.42
2018-11-26T05:30:16.620Z,4.20
2018-11-26T05:32:43.492Z,5.20
2018-11-26T05:35:11.263Z,4.35
2018-11-26T05:37:38.175Z,3.17
2018-11-26T05:40:08.566Z,5.28
2018-11-26T05:42:35.465Z,4.50
2018-11-26T05:45:02.550Z,6.00
2018-11-26T05:47:29.422Z,5.08
2018-11-26T05:49:56.329Z,4.58
2018-11-26T05:52:23.214Z,5.72
2018-11-26T05:54:50.109Z,6.35
2018-11-26T05:57:17.002Z,4.00
2018-11-26T05:59:43.932Z,4.17
2018-11-26T06:02:10.833Z,3.80
2018-11-26T06:04:37.745Z,3.52
2018-11-26T06:07:04.812Z,5.83
2018-11-26T06:09:31.717Z,4.67
2018-11-26T06:11:58.604Z,7.12
2018-11-26T06:14:25.500Z,6.40
2018-11-26T06:16:53.644Z,4.58
2018-11-26T06:19:19.295Z,3.98
2018-11-26T06:21:46.189Z,5.92
2018-11-26T06:24:13.100Z,4.12
2018-11-26T06:26:39.981Z,5.70
2018-11-26T06:29:06.865Z,6.55
2018-11-26T06:31:33.780Z,7.00
2018-11-26T06:34:00.662Z,11.93
2018-11-26T06:36:27.566Z,9.35
2018-11-26T06:38:54.734Z,7.50
2018-11-26T06:41:21.635Z,11.55
2018-11-26T06:43:48.529Z,4.85
2018-11-26T06:46:15.422Z,5.95
2018-11-26T06:48:42.303Z,7.95
2018-11-26T06:51:09.205Z,4.10
2018-11-26T06:53:36.107Z,5.45
2018-11-26T06:56:03.012Z,9.40
2018-11-26T06:58:29.906Z,11.38
2018-11-26T07:00:57.627Z,11.00
2018-11-26T07:03:24.533Z,6.95
2018-11-26T07:05:51.428Z,6.95
2018-11-26T07:08:18.326Z,12.25
2018-11-26T07:10:45.233Z,13.40
2018-11-26T07:13:12.189Z,12.20
2018-11-26T07:15:39.097Z,10.15
2018-11-26T07:18:06.537Z,8.50
2018-11-26T07:20:33.450Z,14.70
2018-11-26T07:23:00.358Z,10.55
2018-11-26T07:25:27.259Z,7.97
2018-11-26T07:27:54.295Z,7.85
2018-11-26T07:30:23.292Z,6.72
2018-11-26T07:32:50.201Z,7.90
2018-11-26T07:35:17.123Z,8.78
2018-11-26T07:37:44.039Z,7.80
2018-11-26T07:40:13.055Z,4.30
2018-11-26T07:42:41.721Z,5.33
2018-11-26T07:45:10.202Z,6.72
2018-11-26T07:47:37.134Z,10.15
2018-11-26T07:50:06.293Z,8.00
2018-11-26T07:52:33.193Z,9.98
2018-11-26T07:55:00.087Z,9.38
2018-11-26T07:57:26.989Z,6.20
2018-11-26T07:59:53.877Z,7.70
2018-11-26T08:02:20.777Z,5.10
2018-11-26T08:04:47.697Z,7.30
2018-11-26T08:07:14.601Z,5.10
2018-11-26T08:09:42.361Z,5.03
2018-11-26T08:12:08.420Z,7.78
2018-11-26T08:14:35.326Z,4.85
2018-11-26T08:17:02.229Z,5.85
2018-11-26T08:19:29.124Z,5.90
2018-11-26T08:21:56.038Z,4.40
2018-11-26T08:24:22.962Z,4.85
2018-11-26T08:26:49.855Z,5.58
2018-11-26T08:29:16.756Z,5.80
2018-11-26T08:31:43.656Z,6.42
2018-11-26T08:34:10.584Z,8.57
2018-11-26T08:36:42.511Z,4.83
2018-11-26T08:39:14.329Z,7.50
2018-11-26T08:41:47.200Z,4.70
2018-11-26T08:44:18.733Z,5.13
2018-11-26T08:46:46.686Z,5.75
2018-11-26T08:49:18.549Z,6.47
2018-11-26T08:51:45.453Z,7.20
2018-11-26T08:54:13.035Z,4.97
2018-11-26T08:56:39.990Z,7.17
2018-11-26T08:59:06.898Z,6.00
2018-11-26T09:01:34.427Z,8.13
2018-11-26T09:04:03.623Z,7.65
2018-11-26T09:06:30.794Z,4.87
2018-11-26T09:08:57.704Z,7.13
2018-11-26T09:11:24.611Z,4.97
2018-11-26T09:13:52.431Z,5.80
2018-11-26T09:16:20.059Z,5.92
2018-11-26T09:18:47.496Z,6.10
2018-11-26T09:21:14.417Z,4.57
2018-11-26T09:23:41.314Z,3.40
2018-11-26T09:26:08.217Z,2.73
2018-11-26T09:28:35.118Z,5.83
2018-11-26T09:31:02.041Z,5.17
2018-11-26T09:33:28.933Z,2.80
2018-11-26T09:35:55.829Z,3.13
2018-11-26T09:38:22.725Z,3.47
2018-11-26T09:40:49.665Z,4.10
2018-11-26T09:43:16.557Z,4.73
2018-11-26T09:45:43.452Z,5.23
2018-11-26T09:48:10.374Z,4.90
2018-11-26T09:50:37.289Z,3.20
2018-11-26T09:53:04.467Z,5.07
2018-11-26T09:55:31.374Z,6.03
2018-11-26T09:57:58.278Z,3.57
2018-11-26T10:00:25.238Z,3.80
2018-11-26T10:02:52.160Z,7.30
2018-11-26T10:05:20.289Z,4.77
2018-11-26T10:07:47.191Z,5.57
2018-11-26T10:10:14.214Z,5.97
2018-11-26T10:12:41.983Z,5.53
2018-11-26T10:15:12.356Z,3.83
2018-11-26T10:17:39.253Z,5.43
2018-11-26T10:20:07.318Z,4.27
2018-11-26T10:22:34.894Z,4.03
2018-11-26T10:25:06.040Z,5.03
2018-11-26T10:27:28.750Z,6.60
2018-11-26T10:29:55.641Z,6.40
2018-11-26T10:32:22.544Z,5.83
2018-11-26T10:34:49.430Z,4.73
2018-11-26T10:37:17.514Z,7.77
2018-11-26T10:39:45.504Z,4.63
2018-11-26T10:42:14.327Z,4.17
2018-11-26T10:44:41.265Z,4.23
2018-11-26T10:47:08.161Z,6.43
2018-11-26T10:49:36.248Z,6.37
2018-11-26T10:52:04.479Z,3.57
2018-11-26T10:54:31.397Z,6.27
2018-11-26T10:56:58.304Z,4.93
2018-11-26T10:59:25.261Z,4.83
2018-11-26T11:02:01.455Z,3.00
2018-11-26T11:04:28.717Z,4.60
2018-11-26T11:06:55.951Z,3.73
2018-11-26T11:09:22.589Z,3.77
2018-11-26T11:11:49.513Z,4.97
2018-11-26T11:14:16.413Z,12.63
2018-11-26T11:16:43.323Z,4.10
2018-11-26T11:19:10.322Z,3.60
2018-11-26T11:21:37.220Z,2.40
2018-11-26T11:24:04.161Z,3.53
2018-11-26T11:26:31.125Z,2.23
2018-11-26T11:28:58.072Z,3.63
2018-11-26T11:31:24.994Z,4.53
2018-11-26T11:33:51.919Z,2.07
2018-11-26T11:36:18.880Z,5.90
2018-11-26T11:38:45.828Z,5.27
2018-11-26T11:41:12.892Z,4.40
2018-11-26T11:43:39.806Z,2.77
2018-11-26T11:46:06.743Z,3.77
2018-11-26T11:48:33.666Z,3.87
2018-11-26T11:51:00.632Z,6.80
2018-11-26T11:53:27.530Z,4.27
2018-11-26T11:55:54.458Z,2.43
2018-11-26T11:58:21.391Z,2.73
2018-11-26T12:00:48.948Z,3.30
2018-11-26T12:03:17.201Z,3.67
2018-11-26T12:05:44.157Z,2.07
2018-11-26T12:08:11.081Z,4.80
2018-11-26T12:10:38.026Z,2.77
2018-11-26T12:13:06.582Z,2.43
2018-11-26T12:15:33.834Z,3.10
2018-11-26T12:18:00.743Z,2.53
2018-11-26T12:20:27.638Z,3.23
2018-11-26T12:22:54.575Z,8.73
2018-11-26T12:25:21.526Z,3.83
2018-11-26T12:27:48.436Z,1.63
2018-11-26T12:30:18.339Z,4.43
2018-11-26T12:32:45.284Z,2.13
2018-11-26T12:35:12.209Z,3.27
2018-11-26T12:37:39.119Z,4.40
2018-11-26T12:40:09.083Z,3.63
2018-11-26T12:42:36.001Z,2.60
2018-11-26T12:45:03.087Z,1.40
2018-11-26T12:47:29.999Z,3.40
2018-11-26T12:49:56.945Z,2.93
2018-11-26T12:52:23.900Z,5.83
2018-11-26T12:54:50.803Z,2.57
2018-11-26T12:57:17.739Z,4.63
2018-11-26T12:59:44.626Z,3.10
2018-11-26T13:02:11.536Z,4.07
2018-11-26T13:04:38.466Z,2.93
2018-11-26T13:07:05.474Z,3.70
2018-11-26T13:09:32.398Z,3.83
2018-11-26T13:11:59.316Z,4.23
2018-11-26T13:14:26.235Z,3.60
2018-11-26T13:16:53.147Z,4.43
2018-11-26T13:19:20.071Z,2.30
2018-11-26T13:21:46.975Z,3.93
2018-11-26T13:24:13.892Z,3.43
2018-11-26T13:26:40.823Z,5.70
2018-11-26T13:29:07.735Z,5.57
2018-11-26T13:31:34.655Z,4.13
2018-11-26T13:34:01.568Z,4.67
2018-11-26T13:36:28.446Z,7.37
2018-11-26T13:38:55.345Z,5.23
2018-11-26T13:41:22.238Z,5.53
2018-11-26T13:43:49.127Z,4.87
2018-11-26T13:46:16.047Z,3.93
2018-11-26T13:48:42.950Z,3.03
2018-11-26T13:51:09.853Z,4.17
2018-11-26T13:53:36.758Z,4.53
2018-11-26T13:56:03.659Z,2.67
2018-11-26T13:58:30.589Z,2.90
2018-11-26T14:00:57.478Z,2.77
2018-11-26T14:03:24.386Z,3.80
2018-11-26T14:05:51.273Z,4.43
2018-11-26T14:08:18.180Z,4.33
2018-11-26T14:10:45.071Z,5.63
2018-11-26T14:13:13.379Z,12.70
2018-11-26T14:15:40.301Z,9.97
2018-11-26T14:18:07.194Z,12.63
2018-11-26T14:20:34.135Z,11.27
2018-11-26T14:23:01.031Z,12.23
2018-11-26T14:25:27.934Z,16.00
2018-11-26T14:27:54.842Z,14.53
2018-11-26T14:30:23.714Z,9.67
2018-11-26T14:32:50.703Z,4.40
2018-11-26T14:35:17.702Z,16.33
2018-11-26T14:37:45.713Z,5.20
2018-11-26T14:40:16.152Z,4.67
2018-11-26T14:42:43.058Z,5.43
2018-11-26T14:45:11.181Z,4.77
2018-11-26T14:47:38.094Z,3.33
2018-11-26T14:50:08.034Z,4.97
2018-11-26T14:52:34.931Z,4.07
2018-11-26T14:55:01.827Z,5.13
2018-11-26T14:57:28.723Z,4.63
2018-11-26T14:59:55.607Z,5.27
2018-11-26T15:02:22.498Z,2.93
2018-11-26T15:04:49.419Z,2.00
2018-11-26T15:07:16.306Z,3.97
2018-11-26T15:09:43.213Z,4.73
2018-11-26T15:12:10.107Z,4.63
2018-11-26T15:14:36.998Z,3.00
2018-11-26T15:17:03.931Z,3.80
2018-11-26T15:19:30.830Z,4.03
2018-11-26T15:21:57.743Z,2.97
2018-11-26T15:24:24.638Z,2.87
2018-11-26T15:26:53.318Z,5.13
2018-11-26T15:29:18.446Z,3.90
2018-11-26T15:31:50.146Z,1.90
2018-11-26T15:34:12.229Z,3.57
2018-11-26T15:36:39.116Z,3.40
2018-11-26T15:39:08.096Z,2.63
2018-11-26T15:41:35.000Z,3.07
2018-11-26T15:44:01.896Z,4.70
2018-11-26T15:46:28.785Z,3.67
2018-11-26T15:48:55.675Z,5.37
2018-11-26T15:51:22.567Z,6.67
2018-11-26T15:53:49.442Z,5.20
2018-11-26T15:56:16.335Z,4.40
2018-11-26T15:58:43.211Z,5.33
2018-11-26T16:01:10.113Z,7.30
2018-11-26T16:03:36.995Z,10.23
2018-11-26T16:06:03.894Z,8.40
2018-11-26T16:08:30.794Z,8.03
2018-11-26T16:10:57.702Z,12.70
2018-11-26T16:13:24.586Z,5.17
2018-11-26T16:15:51.473Z,7.50
2018-11-26T16:18:20.473Z,5.60
2018-11-26T16:20:48.137Z,26.03
2018-11-26T16:23:15.031Z,12.30
2018-11-26T16:25:43.263Z,11.73
2018-11-26T16:28:12.034Z,8.63
2018-11-26T16:30:38.934Z,13.80
2018-11-26T16:33:06.787Z,18.40
2018-11-26T16:35:33.695Z,55.47
2018-11-26T16:38:00.662Z,12.57
2018-11-26T16:40:27.560Z,10.53
2018-11-26T16:42:54.477Z,8.43
2018-11-26T16:45:22.729Z,8.57
2018-11-26T16:47:51.330Z,5.57
2018-11-26T16:50:19.375Z,5.45
2018-11-26T16:52:46.278Z,5.78
2018-11-26T16:55:14.047Z,5.67
2018-11-26T16:57:41.043Z,6.83
2018-11-26T17:00:13.287Z,8.03
2018-11-26T17:02:40.183Z,8.40
2018-11-26T17:05:09.263Z,7.87
2018-11-26T17:07:36.166Z,8.83
2018-11-26T17:10:03.458Z,9.10
2018-11-26T17:12:30.338Z,7.13
2018-11-26T17:14:57.230Z,5.93
2018-11-26T17:17:24.126Z,7.78
2018-11-26T17:19:51.014Z,8.43
2018-11-26T17:22:17.904Z,6.62
2018-11-26T17:24:44.815Z,6.73
2018-11-26T17:27:12.668Z,5.35
2018-11-26T17:29:38.659Z,5.93
2018-11-26T17:32:05.578Z,4.87
2018-11-26T17:34:32.458Z,9.50
2018-11-26T17:36:59.350Z,4.78
2018-11-26T17:39:26.258Z,5.25
2018-11-26T17:41:53.147Z,5.43
2018-11-26T17:44:20.030Z,5.53
2018-11-26T17:46:46.919Z,6.90
2018-11-26T17:49:13.821Z,6.80
2018-11-26T17:51:40.695Z,7.35
2018-11-26T17:54:07.598Z,8.37
2018-11-26T17:56:34.486Z,6.67
2018-11-26T17:59:01.372Z,8.13
2018-11-26T18:01:33.554Z,10.28
2018-11-26T18:04:00.439Z,11.43
2018-11-26T18:06:27.322Z,7.23
2018-11-26T18:08:54.206Z,9.18
2018-11-26T18:11:21.107Z,6.62
2018-11-26T18:13:47.993Z,4.15
2018-11-26T18:16:15.073Z,5.40
2018-11-26T18:18:42.343Z,6.92
2018-11-26T18:21:09.498Z,8.70
2018-11-26T18:23:36.680Z,7.92
2018-11-26T18:26:04.377Z,7.22
2018-11-26T18:28:31.267Z,7.30
2018-11-26T18:30:58.186Z,8.88
2018-11-26T18:33:25.069Z,9.35
2018-11-26T18:35:52.151Z,8.70
2018-11-26T18:38:19.067Z,6.92
2018-11-26T18:40:48.621Z,6.87
2018-11-26T18:43:15.527Z,7.40
2018-11-26T18:45:42.433Z,5.62
2018-11-26T18:48:14.214Z,6.83
2018-11-26T18:50:41.153Z,6.08
2018-11-26T18:53:08.157Z,6.10
2018-11-26T18:55:35.262Z,8.18
2018-11-26T18:58:02.337Z,7.37
2018-11-26T19:00:34.107Z,7.25
2018-11-26T19:03:01.006Z,9.43
2018-11-26T19:05:27.888Z,7.60
2018-11-26T19:07:54.803Z,7.63
2018-11-26T19:10:24.967Z,6.77
2018-11-26T19:12:58.594Z,8.43
2018-11-26T19:15:31.159Z,6.22
2018-11-26T19:18:07.467Z,7.20
2018-11-26T19:20:34.386Z,5.87
2018-11-26T19:23:01.275Z,8.28
2018-11-26T19:25:28.173Z,9.50
2018-11-26T19:27:55.087Z,7.53
2018-11-26T19:30:23.226Z,9.68
2018-11-26T19:32:48.879Z,8.10
2018-11-26T19:35:15.769Z,10.20
2018-11-26T19:37:42.723Z,11.95
2018-11-26T19:40:12.827Z,11.00
2018-11-26T19:42:40.367Z,8.60
2018-11-26T19:45:12.022Z,12.00
2018-11-26T19:47:38.946Z,11.22
2018-11-26T19:50:07.649Z,10.60
2018-11-26T19:52:34.550Z,12.23
2018-11-26T19:55:01.434Z,8.33
2018-11-26T19:57:28.343Z,16.77
2018-11-26T19:59:55.226Z,16.42
2018-11-26T20:02:22.114Z,55.75
2018-11-26T20:04:52.786Z,15.95
2018-11-26T20:07:19.706Z,7.63
2018-11-26T20:09:46.736Z,9.67
2018-11-26T20:12:13.675Z,10.32
2018-11-26T20:14:40.558Z,12.93
2018-11-26T20:17:07.453Z,10.27
2018-11-26T20:19:34.347Z,11.50
2018-11-26T20:22:01.223Z,10.80
2018-11-26T20:24:28.115Z,13.30
2018-11-26T20:26:55.002Z,13.87
2018-11-26T20:29:21.878Z,12.87
2018-11-26T20:31:48.775Z,15.40
2018-11-26T20:34:15.654Z,15.67
2018-11-26T20:36:42.544Z,16.00
2018-11-26T20:39:09.494Z,18.93
2018-11-26T20:41:36.610Z,13.37
2018-11-26T20:44:03.506Z,16.07
2018-11-26T20:46:30.454Z,11.60
2018-11-26T20:48:57.353Z,13.53
2018-11-26T20:51:24.218Z,12.60
2018-11-26T20:53:51.098Z,9.80
2018-11-26T20:56:18.050Z,9.40
2018-11-26T20:58:45.670Z,10.47
2018-11-26T21:01:12.626Z,10.70
2018-11-26T21:03:40.233Z,8.63
2018-11-26T21:06:07.729Z,8.97
2018-11-26T21:08:35.298Z,6.90
2018-11-26T21:11:02.817Z,7.30
2018-11-26T21:13:30.035Z,8.98
2018-11-26T21:15:57.624Z,8.23
2018-11-26T21:18:24.603Z,7.43
2018-11-26T21:20:51.516Z,8.90
2018-11-26T21:23:35.518Z,7.97
2018-11-26T21:26:05.162Z,8.93
2018-11-26T21:28:32.763Z,9.07
2018-11-26T21:31:00.262Z,8.70
2018-11-26T21:33:27.328Z,6.63
2018-11-26T21:35:54.248Z,6.23
2018-11-26T21:38:21.366Z,6.83
2018-11-26T21:40:48.278Z,7.90
2018-11-26T21:43:15.171Z,5.67
2018-11-26T21:45:45.003Z,6.50
2018-11-26T21:48:12.565Z,9.50
2018-11-26T21:50:40.164Z,8.95
2018-11-26T21:53:09.825Z,11.35
2018-11-26T21:55:37.405Z,9.78
2018-11-26T21:58:05.602Z,7.85
2018-11-26T22:00:32.726Z,9.10
2018-11-26T22:03:05.303Z,11.30
2018-11-26T22:05:32.219Z,9.05
2018-11-26T22:07:59.102Z,8.18
2018-11-26T22:10:26.026Z,9.80
2018-11-26T22:12:54.050Z,10.13
2018-11-26T22:15:20.987Z,9.45
2018-11-26T22:17:47.880Z,11.40
2018-11-26T22:20:16.910Z,10.38
2018-11-26T22:22:43.875Z,9.78
2018-11-26T22:25:11.302Z,12.05
2018-11-26T22:27:38.295Z,11.28
2018-11-26T22:30:12.427Z,14.40
2018-11-26T22:32:39.320Z,17.37
2018-11-26T22:35:06.548Z,19.35
2018-11-26T22:37:33.442Z,23.57
2018-11-26T22:40:00.406Z,19.98
2018-11-26T22:42:27.313Z,18.73
2018-11-26T22:44:54.201Z,13.70
2018-11-26T22:47:21.134Z,17.10
2018-11-26T22:49:48.034Z,16.07
2018-11-26T22:52:14.946Z,19.60
2018-11-26T22:54:41.858Z,18.92
2018-11-26T22:57:08.763Z,16.95
2018-11-26T22:59:35.659Z,13.98
2018-11-26T23:02:02.545Z,13.90
2018-11-26T23:04:29.431Z,15.95
2018-11-26T23:06:56.330Z,16.57
2018-11-26T23:09:23.205Z,16.50
2018-11-26T23:11:50.119Z,16.17
2018-11-26T23:14:17.021Z,18.48
2018-11-26T23:16:46.181Z,18.05
2018-11-26T23:19:13.127Z,15.93
2018-11-26T23:21:40.026Z,19.87
2018-11-26T23:24:06.906Z,16.63
2018-11-26T23:26:33.812Z,17.30
2018-11-26T23:29:00.687Z,19.53
2018-11-26T23:31:27.586Z,17.20
2018-11-26T23:33:54.479Z,18.80
2018-11-26T23:36:21.371Z,15.95
2018-11-26T23:38:49.535Z,15.43
2018-11-26T23:41:16.906Z,15.53
2018-11-26T23:43:43.777Z,13.43
2018-11-26T23:46:10.671Z,12.98
2018-11-26T23:48:37.559Z,13.98
2018-11-26T23:51:05.425Z,14.07
2018-11-26T23:53:32.306Z,11.70
2018-11-26T23:55:59.235Z,11.60
2018-11-26T23:58:26.983Z,11.85
